60WI weather

Howard Young Medical Center Heliport
Woodruff, Wisconsin, United States

Public forecast

Using degrees Fahrenheit for public forecast. Weather courtesy of forecast.io.

Closest aviation weather report (METAR) to Howard Young Medical Center Heliport

Closest report is Lakeland-Noble F. Lee Memorial field, 2.4 nm (4.5 km) NNW. Retrieved 2019/10/15 03:35 UTC (11 minutes ago):

KARV 150335Z AUTO 00000KT 10SM CLR 01/00 A2996 RMK AO2 T00110000

Closest aviation forecast (TAF) to Howard Young Medical Center Heliport

Closest forecast is Rhinelander Oneida County Airport, 18.5 nm (34.3 km) SSE. Retrieved 2019-10-15 00:33 UTC (3 hours ago):

TAF KRHI 142331Z 1500/1524 22003KT P6SM SCT250 FM150300 18005KT P6SM BKN120 FM150600 13008KT P6SM BKN060 FM150900 12007KT P6SM -RA OVC035 WS019/18035KT FM151300 13008G13KT 6SM -RA OVC012 WS019/18035KT FM151500 13008KT 2SM -SHRA OVC006 FM151900 08007KT 3SM -SHRA OVC006